Time;durP1;ratioP1;P1;durP2;ratioP2;P2;SDS_P1;SDS_P2;PMS_P1;PMS_P2;Temp;Humidity;BMP_temperature;BMP_pressure;BME280_temperature;BME280_humidity;BME280_pressure;Samples;Min_cycle;Max_cycle;Signal;HPM_P1;HPM_P2
2023/05/11 04:24:13;;;;;;;7.47;3.65;;;;;;;12.67;96.33;101556.50;4970796;28;115242;-29
2023/05/11 04:26:38;;;;;;;11.55;3.92;;;;;;;12.70;96.31;101564.47;4972968;28;96820;-29
2023/05/11 04:29:04;;;;;;;10.00;4.55;;;;;;;12.71;96.20;101558.97;4972584;28;102650;-29
2023/05/11 04:31:29;;;;;;;9.63;4.32;;;;;;;12.75;96.40;101571.41;4972738;28;97747;-29
2023/05/11 04:33:54;;;;;;;9.00;3.85;;;;;;;12.74;96.48;101568.78;4973092;28;96585;-29
2023/05/11 06:32:36;;;;;;;16.10;6.32;;;;;;;13.26;95.29;101657.28;4969385;28;126942;-29
2023/05/11 06:35:02;;;;;;;13.40;5.30;;;;;;;13.27;94.99;101649.03;4971551;28;97804;-29
2023/05/11 06:37:31;;;;;;;11.25;5.63;;;;;;;13.31;95.23;101652.47;4971599;28;96448;-29
2023/05/11 06:39:57;;;;;;;9.93;4.90;;;;;;;13.36;95.04;101650.34;4972739;28;96776;-29
2023/05/11 06:42:22;;;;;;;10.77;5.63;;;;;;;13.41;94.88;101640.03;4974331;28;98002;-30
2023/05/11 06:44:48;;;;;;;12.25;5.43;;;;;;;13.49;94.91;101645.91;4974562;28;97416;-29
2023/05/11 06:47:13;;;;;;;10.65;4.78;;;;;;;13.53;94.88;101646.59;4973177;28;96489;-29
2023/05/11 06:49:40;;;;;;;9.50;5.28;;;;;;;13.55;95.11;101653.69;4974906;28;96856;-30
2023/05/11 06:52:06;;;;;;;8.90;4.78;;;;;;;13.61;94.58;101655.19;4974207;28;99259;-29
2023/05/11 06:54:31;;;;;;;13.45;5.47;;;;;;;13.65;94.38;101664.00;4974408;28;97854;-28
2023/05/11 06:56:56;;;;;;;13.15;5.45;;;;;;;13.69;94.25;101658.28;4973831;28;96738;-30
2023/05/11 06:59:22;;;;;;;10.25;4.70;;;;;;;13.76;94.36;101662.38;4974470;28;96879;-29
2023/05/11 07:01:47;;;;;;;11.63;5.00;;;;;;;13.79;94.19;101661.31;4974162;28;100697;-29
2023/05/11 07:04:12;;;;;;;9.77;4.82;;;;;;;13.85;94.80;101668.22;4974227;28;97246;-29
2023/05/11 07:06:38;;;;;;;13.38;5.53;;;;;;;13.83;94.58;101667.47;4974601;28;96691;-29
2023/05/11 07:09:03;;;;;;;12.90;5.15;;;;;;;13.79;94.41;101664.91;4974525;28;96967;-29
2023/05/11 07:11:29;;;;;;;12.98;4.97;;;;;;;13.81;94.30;101662.97;4972610;28;100957;-29
2023/05/11 07:13:55;;;;;;;12.77;5.07;;;;;;;13.82;94.23;101666.56;4974307;28;97805;-29
2023/05/11 07:16:20;;;;;;;10.57;5.43;;;;;;;13.86;94.30;101668.13;4974055;28;96516;-29
2023/05/11 07:18:45;;;;;;;11.43;5.22;;;;;;;13.89;94.52;101662.47;4974080;28;96692;-30
2023/05/11 07:21:11;;;;;;;16.23;5.47;;;;;;;13.94;94.16;101668.53;4973392;28;101299;-29
2023/05/11 07:23:36;;;;;;;9.77;5.07;;;;;;;13.98;94.36;101663.75;4973696;28;99572;-29
2023/05/11 07:26:07;;;;;;;8.90;4.82;;;;;;;14.04;93.79;101666.13;4974043;28;96587;-29
2023/05/11 07:28:32;;;;;;;16.13;5.70;;;;;;;14.03;93.72;101654.31;4972833;28;96602;-29
2023/05/11 07:30:58;;;;;;;11.05;5.43;;;;;;;14.12;93.80;101669.22;4973658;28;97412;-30
2023/05/11 07:33:23;;;;;;;16.17;6.22;;;;;;;14.10;93.81;101667.56;4973576;28;97420;-29
2023/05/11 07:35:50;;;;;;;10.80;5.38;;;;;;;14.17;93.99;101669.78;4973978;28;96539;-29
2023/05/11 07:38:17;;;;;;;12.82;5.85;;;;;;;14.26;93.45;101667.47;4972778;28;96579;-29
2023/05/11 07:40:42;;;;;;;11.23;5.65;;;;;;;14.36;93.08;101668.63;4971985;28;99573;-29
2023/05/11 07:43:08;;;;;;;12.43;5.53;;;;;;;14.49;92.49;101671.44;4973647;28;97878;-29
2023/05/11 07:45:33;;;;;;;12.00;5.40;;;;;;;14.56;91.83;101671.00;4973339;28;96503;-29
2023/05/11 07:47:59;;;;;;;11.23;5.05;;;;;;;14.65;91.83;101672.22;4975155;28;97673;-31
2023/05/11 07:50:24;;;;;;;12.50;5.45;;;;;;;14.70;91.15;101661.88;4972799;28;97828;-28
2023/05/11 07:52:49;;;;;;;10.52;6.25;;;;;;;14.75;90.87;101667.03;4972429;28;99212;-29
2023/05/11 07:55:15;;;;;;;13.65;6.13;;;;;;;15.12;91.31;101667.31;4973370;28;96739;-29
2023/05/11 07:57:40;;;;;;;12.13;6.00;;;;;;;15.62;90.65;101674.75;4973712;28;96854;-30
2023/05/11 08:00:06;;;;;;;19.70;7.85;;;;;;;15.96;87.05;101672.41;4973257;28;99460;-29
2023/05/11 08:02:32;;;;;;;11.82;6.85;;;;;;;15.98;86.91;101664.97;4971857;28;99435;-29
2023/05/11 08:04:57;;;;;;;15.30;7.28;;;;;;;16.05;85.96;101662.69;4973521;28;96601;-30
2023/05/11 08:07:23;;;;;;;14.10;6.88;;;;;;;15.82;85.05;101667.91;4973480;28;96474;-30
2023/05/11 08:09:48;;;;;;;13.85;7.40;;;;;;;15.76;85.88;101668.38;4972475;28;99262;-29
2023/05/11 08:12:13;;;;;;;14.05;6.88;;;;;;;16.04;86.10;101666.38;4972976;28;99537;-31
2023/05/11 08:14:39;;;;;;;12.27;7.03;;;;;;;16.18;83.44;101670.88;4972186;28;96712;-29
2023/05/11 08:17:05;;;;;;;16.88;7.75;;;;;;;16.38;83.86;101673.03;4973146;28;96970;-29
2023/05/11 08:19:30;;;;;;;14.52;7.28;;;;;;;16.61;83.04;101663.13;4971560;28;100760;-29
2023/05/11 08:21:55;;;;;;;14.85;6.95;;;;;;;16.75;82.65;101662.97;4972841;28;100850;-29
2023/05/11 08:24:21;;;;;;;17.25;7.68;;;;;;;16.67;82.19;101673.63;4972869;28;96617;-30
2023/05/11 08:26:47;;;;;;;15.93;7.78;;;;;;;16.50;82.65;101676.75;4973657;28;96761;-29
2023/05/11 08:29:12;;;;;;;12.90;7.90;;;;;;;16.25;82.58;101672.16;4972641;28;99513;-28
2023/05/11 08:31:38;;;;;;;11.68;6.50;;;;;;;16.24;83.91;101668.56;4972196;28;99334;-28
2023/05/11 08:34:07;;;;;;;11.13;6.57;;;;;;;16.11;83.10;101674.06;4971110;28;97197;-29
2023/05/11 08:36:32;;;;;;;16.48;6.72;;;;;;;16.12;84.34;101675.78;4971534;28;97054;-29
2023/05/11 08:38:58;;;;;;;13.15;6.32;;;;;;;16.06;82.87;101681.69;4972697;28;100007;-29
2023/05/11 08:41:23;;;;;;;15.85;6.50;;;;;;;15.89;83.74;101674.69;4973108;28;97288;-29
2023/05/11 08:43:48;;;;;;;12.32;6.82;;;;;;;15.83;82.44;101674.28;4972758;28;96611;-29
2023/05/11 08:46:22;;;;;;;12.57;6.75;;;;;;;15.70;83.92;101672.38;4972811;28;96857;-29
2023/05/11 08:48:49;;;;;;;15.70;6.90;;;;;;;15.69;84.78;101675.22;4971436;28;100903;-29
2023/05/11 08:51:14;;;;;;;17.70;7.00;;;;;;;15.66;85.22;101668.09;4971665;28;101012;-28
2023/05/11 08:53:40;;;;;;;12.60;5.72;;;;;;;15.62;85.30;101680.22;4972536;28;97108;-29
2023/05/11 08:56:07;;;;;;;13.68;6.38;;;;;;;15.58;85.32;101677.81;4972809;28;96911;-29
2023/05/11 08:58:36;;;;;;;11.85;5.93;;;;;;;15.56;85.71;101672.44;4970635;28;102239;-28
2023/05/11 09:01:03;;;;;;;13.45;6.25;;;;;;;15.56;85.91;101675.16;4970998;28;100713;-29
2023/05/11 09:03:29;;;;;;;14.88;6.07;;;;;;;15.52;85.36;101673.66;4970507;28;96775;-29
2023/05/11 09:05:55;;;;;;;12.57;6.30;;;;;;;15.45;85.65;101675.06;4972618;28;96779;-29
2023/05/11 09:08:22;;;;;;;10.82;6.15;;;;;;;15.43;86.13;101675.16;4972173;28;99358;-29
2023/05/11 09:10:48;;;;;;;11.05;6.32;;;;;;;15.44;86.42;101676.03;4971012;28;100940;-30
2023/05/11 09:13:14;;;;;;;11.48;5.68;;;;;;;15.38;86.36;101680.06;4971136;28;96608;-29
2023/05/11 09:15:39;;;;;;;13.13;5.65;;;;;;;15.33;86.83;101681.38;4972888;28;96901;-30
2023/05/11 09:18:05;;;;;;;10.85;5.32;;;;;;;15.29;87.07;101680.69;4972316;28;97871;-29
2023/05/11 09:20:32;;;;;;;11.68;5.35;;;;;;;15.27;87.18;101683.50;4972122;28;98148;-29
2023/05/11 09:22:58;;;;;;;9.75;5.13;;;;;;;15.23;87.69;101684.72;4970128;28;97186;-30
2023/05/11 09:25:24;;;;;;;9.48;4.85;;;;;;;15.18;87.85;101683.25;4972437;28;96759;-29
2023/05/11 09:27:50;;;;;;;12.10;5.65;;;;;;;15.17;88.25;101690.56;4970789;28;100910;-29
2023/05/11 09:30:18;;;;;;;8.45;4.72;;;;;;;15.16;88.29;101694.28;4970360;28;101302;-29
2023/05/11 09:32:55;;;;;;;10.30;4.82;;;;;;;15.15;87.93;101691.66;4971828;28;96832;-28
2023/05/11 09:35:29;;;;;;;7.20;4.15;;;;;;;15.12;87.62;101686.41;4970672;28;96874;-29
2023/05/11 09:37:58;;;;;;;8.18;4.05;;;;;;;15.11;87.94;101687.38;4970754;28;101153;-31
2023/05/11 09:40:27;;;;;;;9.45;4.43;;;;;;;15.01;87.85;101698.03;4972464;28;97645;-31
2023/05/11 09:42:53;;;;;;;10.25;4.30;;;;;;;15.01;88.19;101687.13;4970657;28;96581;-29
2023/05/11 09:45:42;;;;;;;7.90;4.28;;;;;;;15.07;88.57;101694.91;4972304;28;96800;-29
2023/05/11 09:48:19;;;;;;;4.32;2.75;;;;;;;15.07;88.03;101692.19;4970250;28;99498;-29
2023/05/11 09:50:46;;;;;;;5.50;2.92;;;;;;;14.97;87.66;101686.47;4970527;28;100859;-29
2023/05/11 09:53:12;;;;;;;7.35;2.63;;;;;;;15.01;88.27;101692.56;4970833;28;96695;-30
2023/05/11 09:55:37;;;;;;;5.25;3.15;;;;;;;15.02;88.44;101697.06;4971999;28;96821;-29
2023/05/11 09:58:03;;;;;;;8.15;3.13;;;;;;;14.99;87.63;101692.69;4972033;28;97901;-33
2023/05/11 10:00:29;;;;;;;6.28;2.75;;;;;;;14.99;87.94;101698.16;4971702;28;98090;-31
2023/05/11 10:03:07;;;;;;;4.63;2.85;;;;;;;14.97;87.82;101699.22;4970405;28;96908;-29
2023/05/11 10:05:34;;;;;;;3.92;2.47;;;;;;;14.95;87.04;101695.72;4972249;28;96773;-30
2023/05/11 10:08:04;;;;;;;5.40;2.97;;;;;;;14.94;87.10;101704.88;4970389;28;100903;-30
2023/05/11 10:10:32;;;;;;;4.55;2.63;;;;;;;14.95;87.85;101706.66;4972005;28;97873;-29
2023/05/11 10:13:01;;;;;;;7.20;3.08;;;;;;;14.93;87.97;101697.69;4971127;28;96782;-29
2023/05/11 10:15:29;;;;;;;6.95;3.63;;;;;;;14.93;88.24;101692.22;4973492;28;96820;-30
2023/05/11 10:17:55;;;;;;;7.57;3.40;;;;;;;14.94;88.46;101696.69;4973606;28;100948;-30
2023/05/11 10:20:21;;;;;;;6.95;4.22;;;;;;;14.95;88.39;101693.00;4973556;28;100877;-29
2023/05/11 10:22:51;;;;;;;13.30;5.22;;;;;;;14.93;88.58;101692.22;4975135;28;96490;-29
2023/05/11 10:25:18;;;;;;;13.60;4.85;;;;;;;14.92;88.75;101699.53;4974743;28;96764;-29
2023/05/11 10:27:43;;;;;;;10.15;4.68;;;;;;;14.85;88.59;101698.19;4973389;28;101204;-29
2023/05/11 10:30:10;;;;;;;9.82;5.30;;;;;;;14.88;89.19;101695.25;4974849;28;99454;-29
2023/05/11 10:32:38;;;;;;;10.68;5.25;;;;;;;14.88;89.53;101697.13;4972973;28;96699;-29
2023/05/11 10:35:05;;;;;;;12.43;5.10;;;;;;;14.89;89.61;101696.13;4973579;28;96813;-29
2023/05/11 10:37:32;;;;;;;10.02;4.45;;;;;;;14.89;89.08;101704.31;4974037;28;99301;-29
2023/05/11 10:39:58;;;;;;;9.27;4.45;;;;;;;14.84;89.29;101704.63;4973072;28;100918;-29
2023/05/11 10:42:51;;;;;;;9.43;4.80;;;;;;;14.83;89.49;101709.19;4973413;28;96634;-29
2023/05/11 10:45:35;;;;;;;8.63;5.00;;;;;;;14.79;89.43;101701.31;4974959;28;96660;-29
2023/05/11 10:48:18;;;;;;;9.82;4.80;;;;;;;14.74;89.83;101707.06;4973301;28;100804;-29
2023/05/11 10:51:08;;;;;;;6.88;4.30;;;;;;;14.69;91.07;101711.94;4973241;28;99148;-29
2023/05/11 10:54:02;;;;;;;9.93;4.72;;;;;;;14.68;90.52;101712.03;4974741;28;96544;-30
2023/05/11 10:56:51;;;;;;;8.60;4.93;;;;;;;14.62;90.65;101711.47;4974824;28;96673;-31
2023/05/11 10:59:57;;;;;;;6.82;4.43;;;;;;;14.67;90.84;101718.47;4973019;28;100805;-29
2023/05/11 11:02:30;;;;;;;7.90;4.32;;;;;;;14.71;90.30;101707.28;4972564;28;101138;-28
2023/05/11 11:04:57;;;;;;;7.45;3.88;;;;;;;14.74;89.96;101703.47;4972240;28;97337;-29
2023/05/11 11:07:22;;;;;;;11.23;3.83;;;;;;;14.76;89.20;101702.41;4972926;28;96900;-29
2023/05/11 11:09:50;;;;;;;7.53;3.90;;;;;;;14.75;88.78;101706.09;4974017;28;99357;-31
2023/05/11 11:12:15;;;;;;;8.27;4.80;;;;;;;14.80;89.32;101703.97;4972714;28;101363;-29
2023/05/11 11:15:01;;;;;;;10.30;3.78;;;;;;;14.90;88.99;101706.94;4974280;28;96679;-29
2023/05/11 11:17:31;;;;;;;5.68;2.83;;;;;;;14.93;88.33;101712.19;4972790;28;96850;-29
2023/05/11 11:19:59;;;;;;;5.55;2.80;;;;;;;14.89;87.49;101696.13;4972657;28;99097;-29
2023/05/11 11:22:34;;;;;;;4.45;2.97;;;;;;;14.97;87.36;101705.56;4972853;28;101043;-29
2023/05/11 11:25:06;;;;;;;4.45;2.80;;;;;;;15.12;88.54;101709.13;4974096;28;96687;-29
2023/05/11 11:27:43;;;;;;;;;;;;;;;15.24;88.17;101712.88;4974449;28;96612;-30
2023/05/11 11:30:19;;;;;;;5.65;2.95;;;;;;;15.34;87.41;101705.81;4973286;28;97408;-30
2023/05/11 11:32:48;;;;;;;6.65;2.83;;;;;;;15.41;87.49;101701.69;4973211;28;99485;-29
2023/05/11 11:35:39;;;;;;;3.40;2.10;;;;;;;15.45;85.88;101702.34;4972625;28;96589;-29
2023/05/11 11:38:16;;;;;;;3.42;1.98;;;;;;;15.41;85.18;101698.94;4974050;28;96783;-29
2023/05/11 11:40:51;;;;;;;3.38;1.98;;;;;;;15.48;85.50;101689.34;4972247;28;101216;-29
2023/05/11 11:43:27;;;;;;;4.65;1.67;;;;;;;15.60;85.84;101693.09;4973568;28;99371;-30
2023/05/11 11:45:58;;;;;;;2.25;1.70;;;;;;;15.65;85.63;101684.59;4972541;28;96608;-30
2023/05/11 11:48:34;;;;;;;1.93;1.43;;;;;;;15.73;85.69;101692.28;4972650;28;96787;-30
2023/05/11 11:51:09;;;;;;;4.15;2.05;;;;;;;15.75;85.58;101695.78;4972270;28;102011;-30
2023/05/11 11:53:39;;;;;;;3.30;1.95;;;;;;;15.77;85.21;101704.75;4973506;28;99174;-29
2023/05/11 11:56:14;;;;;;;2.97;1.90;;;;;;;15.79;85.70;101700.06;4973027;28;96653;-29
2023/05/11 11:58:43;;;;;;;5.07;2.60;;;;;;;15.78;85.06;101706.47;4973651;28;96491;-29
2023/05/11 12:01:12;;;;;;;5.82;2.80;;;;;;;15.66;85.92;101703.59;4973108;28;99392;-29
2023/05/11 12:03:38;;;;;;;3.92;2.42;;;;;;;15.60;86.07;101706.75;4971512;28;101137;-29
2023/05/11 12:06:06;;;;;;;3.83;1.83;;;;;;;15.51;86.03;101705.53;4972086;28;96519;-29
2023/05/11 12:08:33;;;;;;;4.30;2.10;;;;;;;15.52;86.67;101703.69;4973295;28;96910;-29
2023/05/11 12:11:00;;;;;;;3.65;1.88;;;;;;;15.57;86.99;101709.69;4971912;28;101131;-30
2023/05/11 12:13:25;;;;;;;3.63;1.95;;;;;;;15.57;86.96;101698.78;4973449;28;99325;-30
2023/05/11 12:16:09;;;;;;;2.85;1.85;;;;;;;15.57;86.99;101708.84;4973051;28;96686;-29
2023/05/11 12:18:35;;;;;;;2.47;1.45;;;;;;;15.54;85.99;101707.19;4971852;28;96812;-29
2023/05/11 12:21:01;;;;;;;2.63;1.27;;;;;;;15.55;85.65;101706.19;4971072;28;101529;-29
2023/05/11 12:23:27;;;;;;;4.07;1.50;;;;;;;15.51;85.79;101700.06;4971137;28;99065;-30
2023/05/11 12:26:06;;;;;;;2.20;1.25;;;;;;;15.55;85.61;101694.41;4973165;28;96756;-29
2023/05/11 12:28:32;;;;;;;3.42;1.33;;;;;;;15.57;85.88;101706.97;4971712;28;96548;-29
2023/05/11 12:30:58;;;;;;;2.45;1.42;;;;;;;15.56;85.25;101698.88;4971165;28;100815;-30
2023/05/11 12:33:23;;;;;;;4.10;1.60;;;;;;;15.61;85.54;101703.06;4972500;28;99537;-30
2023/05/11 12:35:53;;;;;;;4.60;1.67;;;;;;;15.65;85.47;101700.97;4973536;28;96651;-29
2023/05/11 12:38:18;;;;;;;3.17;1.65;;;;;;;15.64;85.36;101683.72;4971153;28;96938;-29
2023/05/11 12:40:51;;;;;;;4.50;1.90;;;;;;;15.72;85.41;101691.41;4972547;28;99220;-29
2023/05/11 12:43:18;;;;;;;4.65;1.58;;;;;;;15.77;85.25;101683.75;4971218;28;101180;-29
2023/05/11 12:45:45;;;;;;;4.57;2.00;;;;;;;15.83;85.21;101693.41;4970943;28;97638;-29
2023/05/11 12:48:11;;;;;;;3.35;1.77;;;;;;;15.83;85.11;101687.94;4971443;28;96930;-29
2023/05/11 12:50:41;;;;;;;2.20;1.48;;;;;;;15.86;84.96;101695.91;4972657;28;97463;-30
2023/05/11 12:53:14;;;;;;;3.42;2.05;;;;;;;15.91;84.67;101685.53;4972401;28;97838;-30
2023/05/11 12:55:40;;;;;;;2.67;1.67;;;;;;;15.95;84.36;101691.66;4971468;28;96782;-29
2023/05/11 12:58:11;;;;;;;2.78;1.75;;;;;;;16.00;83.73;101682.16;4971303;28;96833;-30
2023/05/11 13:00:37;;;;;;;3.97;1.80;;;;;;;16.05;83.94;101679.09;4971234;28;100916;-30
2023/05/11 13:03:02;;;;;;;4.63;2.17;;;;;;;16.06;83.47;101681.69;4972884;28;97996;-29
2023/05/11 13:05:28;;;;;;;5.63;1.73;;;;;;;16.10;83.97;101675.03;4972518;28;96744;-29
2023/05/11 13:08:02;;;;;;;2.72;1.58;;;;;;;16.13;82.70;101679.41;4972554;28;96845;-30
2023/05/11 13:10:28;;;;;;;3.70;1.65;;;;;;;16.13;82.71;101683.00;4970481;28;100865;-29
2023/05/11 13:12:55;;;;;;;3.67;1.70;;;;;;;16.13;83.10;101680.25;4970913;28;100856;-29
2023/05/11 13:15:22;;;;;;;3.05;1.75;;;;;;;16.14;83.22;101686.63;4971009;28;96511;-29
2023/05/11 13:17:55;;;;;;;2.90;1.48;;;;;;;16.13;83.02;101685.72;4971191;28;96862;-31
2023/05/11 13:20:29;;;;;;;2.25;1.15;;;;;;;16.17;82.74;101682.81;4970604;28;101021;-29
2023/05/11 13:23:24;;;;;;;2.42;1.15;;;;;;;16.23;82.72;101687.81;4970829;28;100968;-29
2023/05/11 13:25:54;;;;;;;2.22;1.20;;;;;;;16.28;81.50;101693.81;4971082;28;96931;-28
2023/05/11 13:28:23;;;;;;;2.55;1.42;;;;;;;16.27;80.84;101692.06;4971361;28;96731;-29
2023/05/11 13:30:52;;;;;;;2.50;1.33;;;;;;;16.25;81.24;101692.19;4971798;28;99517;-31
2023/05/11 13:33:18;;;;;;;1.90;1.23;;;;;;;16.29;80.74;101701.91;4970550;28;101341;-29
2023/05/11 13:35:44;;;;;;;4.47;2.17;;;;;;;16.35;81.30;101698.75;4971696;28;96486;-29
2023/05/11 13:38:11;;;;;;;3.50;2.05;;;;;;;16.43;81.34;101695.44;4970837;28;96905;-29
2023/05/11 13:40:37;;;;;;;4.40;1.95;;;;;;;16.62;81.40;101699.59;4970528;28;101110;-29
2023/05/11 13:43:03;;;;;;;4.85;2.28;;;;;;;16.61;80.17;101698.69;4970675;28;100954;-30
2023/05/11 13:45:28;;;;;;;4.30;1.85;;;;;;;16.58;79.36;101698.06;4972087;28;96601;-30
2023/05/11 13:47:54;;;;;;;4.03;1.77;;;;;;;16.66;80.21;101701.09;4971949;28;96820;-30
2023/05/11 13:50:24;;;;;;;2.70;1.90;;;;;;;16.81;79.89;101702.75;4975225;28;97963;-29
2023/05/11 13:52:51;;;;;;;2.92;1.50;;;;;;;16.90;78.73;101701.16;4975923;28;97909;-29
2023/05/11 13:55:16;;;;;;;3.90;1.52;;;;;;;17.05;78.71;101699.16;4974011;28;96654;-29
2023/05/11 13:57:42;;;;;;;4.25;1.88;;;;;;;17.09;77.74;101696.06;4975526;28;96919;-31
2023/05/11 14:00:09;;;;;;;2.70;1.63;;;;;;;17.08;77.92;101691.56;4974633;28;99271;-30
2023/05/11 14:02:34;;;;;;;3.40;1.67;;;;;;;17.06;77.98;101696.28;4973753;28;100753;-31
2023/05/11 14:04:59;;;;;;;4.20;1.60;;;;;;;17.08;78.17;101696.19;4975411;28;96551;-29
2023/05/11 14:07:25;;;;;;;4.13;1.85;;;;;;;17.04;77.92;101689.19;4975529;28;96872;-30
2023/05/11 14:09:50;;;;;;;2.88;1.88;;;;;;;16.95;78.35;101688.91;4975182;28;97933;-30
2023/05/11 14:12:16;;;;;;;5.68;2.00;;;;;;;16.90;78.42;101687.47;4975135;28;97907;-30
2023/05/11 14:14:42;;;;;;;3.63;2.05;;;;;;;16.88;78.72;101687.63;4973681;28;96695;-29
2023/05/11 14:17:08;;;;;;;5.50;1.92;;;;;;;16.89;79.20;101702.16;4975776;28;96778;-30
2023/05/11 14:19:34;;;;;;;2.90;1.70;;;;;;;16.77;77.75;101699.31;4975050;28;97496;-29
2023/05/11 14:21:59;;;;;;;3.13;1.30;;;;;;;16.70;76.24;101698.00;4975156;28;98422;-29
2023/05/11 14:24:25;;;;;;;2.53;1.20;;;;;;;16.61;77.04;101706.91;4974473;28;96593;-29
2023/05/11 14:26:50;;;;;;;2.63;1.13;;;;;;;16.61;78.20;101703.28;4974763;28;96851;-29
2023/05/11 14:29:16;;;;;;;1.90;1.30;;;;;;;16.64;76.96;101700.34;4974752;28;98054;-29
2023/05/11 14:31:41;;;;;;;2.60;1.20;;;;;;;16.70;77.93;101691.69;4973893;28;99427;-29
2023/05/11 14:34:06;;;;;;;2.08;1.30;;;;;;;16.70;77.06;101705.34;4975001;28;96623;-29
2023/05/11 14:36:32;;;;;;;2.80;1.27;;;;;;;16.66;76.65;101695.63;4975152;28;96843;-29
2023/05/11 14:38:57;;;;;;;2.50;1.35;;;;;;;16.67;76.81;101698.25;4974887;28;97317;-30
2023/05/11 14:41:22;;;;;;;2.25;1.40;;;;;;;16.76;77.07;101694.84;4975210;28;97791;-32
2023/05/11 14:43:48;;;;;;;2.08;1.15;;;;;;;16.84;75.00;101697.03;4974690;28;96643;-30
2023/05/11 14:46:14;;;;;;;1.83;0.82;;;;;;;16.94;75.63;101697.22;4974564;28;96866;-29
2023/05/11 14:48:40;;;;;;;2.22;1.13;;;;;;;17.06;76.13;101704.50;4972660;28;101290;-29
2023/05/11 14:51:06;;;;;;;2.05;1.20;;;;;;;17.12;76.16;101700.44;4974488;28;99327;-29
2023/05/11 14:53:32;;;;;;;2.45;1.30;;;;;;;17.16;76.02;101701.94;4973169;28;96662;-29
2023/05/11 14:55:58;;;;;;;4.43;1.75;;;;;;;17.20;76.04;101698.84;4974484;28;96836;-30
2023/05/11 14:58:24;;;;;;;2.65;1.40;;;;;;;17.20;75.21;101696.13;4973045;28;99314;-30
2023/05/11 15:00:49;;;;;;;3.80;1.85;;;;;;;17.18;75.09;101692.66;4973851;28;97764;-30
2023/05/11 15:03:14;;;;;;;2.30;1.33;;;;;;;17.20;76.25;101693.38;4973863;28;96518;-29
2023/05/11 15:05:40;;;;;;;2.17;1.15;;;;;;;17.18;76.77;101691.75;4975079;28;96984;-29
2023/05/11 15:08:06;;;;;;;4.32;2.00;;;;;;;17.11;76.55;101690.47;4974166;28;99287;-29
2023/05/11 15:10:31;;;;;;;3.83;2.15;;;;;;;17.03;76.24;101695.66;4974157;28;97343;-29
2023/05/11 15:12:57;;;;;;;4.63;2.13;;;;;;;16.89;76.44;101692.09;4973911;28;96652;-29
2023/05/11 15:15:22;;;;;;;3.97;2.10;;;;;;;16.93;77.26;101690.88;4974267;28;96697;-30
2023/05/11 15:17:48;;;;;;;3.00;2.03;;;;;;;16.93;76.44;101693.59;4974114;28;97941;-29
2023/05/11 15:20:15;;;;;;;5.13;2.50;;;;;;;16.84;76.78;101690.69;4974340;28;97284;-29
2023/05/11 15:22:41;;;;;;;5.03;2.15;;;;;;;16.80;77.69;101689.16;4972777;28;96602;-29
2023/05/11 15:25:06;;;;;;;4.10;2.08;;;;;;;16.75;77.60;101693.06;4974277;28;96781;-30
2023/05/11 15:27:32;;;;;;;4.68;2.28;;;;;;;16.67;78.26;101703.72;4973762;28;97403;-29
2023/05/11 15:29:57;;;;;;;4.32;2.00;;;;;;;16.66;78.27;101695.63;4974362;28;97779;-29
2023/05/11 15:32:22;;;;;;;3.92;1.90;;;;;;;16.68;78.24;101696.38;4973124;28;96745;-30
2023/05/11 15:34:48;;;;;;;2.95;1.95;;;;;;;16.66;78.13;101703.81;4973714;28;96740;-29
2023/05/11 15:37:14;;;;;;;2.63;1.50;;;;;;;16.59;77.30;101699.78;4971951;28;101199;-29
2023/05/11 15:39:39;;;;;;;3.70;1.77;;;;;;;16.60;78.00;101698.81;4973846;28;97817;-29
2023/05/11 15:42:08;;;;;;;1.88;1.10;;;;;;;16.54;76.43;101701.03;4973847;28;96524;-31
2023/05/11 15:44:34;;;;;;;2.75;1.10;;;;;;;16.55;76.73;101705.50;4972369;28;96643;-29
2023/05/11 15:47:00;;;;;;;2.10;1.17;;;;;;;16.56;76.96;101704.53;4972266;28;100869;-29
2023/05/11 15:49:26;;;;;;;2.67;1.05;;;;;;;16.56;77.42;101710.00;4972077;28;101221;-30
2023/05/11 15:51:51;;;;;;;1.77;1.20;;;;;;;16.56;76.65;101701.78;4973597;28;96671;-30
2023/05/11 15:54:16;;;;;;;3.97;1.60;;;;;;;16.55;77.34;101700.03;4974420;28;96794;-29
2023/05/11 15:56:42;;;;;;;2.63;1.58;;;;;;;16.52;77.12;101703.00;4973281;28;99293;-31
2023/05/11 15:59:08;;;;;;;2.92;1.25;;;;;;;16.54;76.95;101701.03;4973464;28;97804;-30
2023/05/11 16:01:33;;;;;;;1.95;1.20;;;;;;;16.55;77.15;101701.88;4973059;28;96659;-29
2023/05/11 16:04:00;;;;;;;2.72;1.17;;;;;;;16.58;77.40;101698.06;4973159;28;96812;-29
2023/05/11 16:06:26;;;;;;;2.05;1.15;;;;;;;16.50;77.49;101701.34;4971873;28;100806;-30
2023/05/11 16:08:52;;;;;;;2.78;1.48;;;;;;;16.50;78.11;101707.69;4973523;28;98037;-30
2023/05/11 16:11:17;;;;;;;1.98;1.38;;;;;;;16.51;77.51;101694.88;4973198;28;96671;-29
2023/05/11 16:13:43;;;;;;;1.80;1.35;;;;;;;16.51;78.01;101703.97;4972318;28;96713;-30
2023/05/11 16:16:08;;;;;;;2.80;1.40;;;;;;;16.46;78.04;101697.97;4973470;28;97368;-30
2023/05/11 16:18:34;;;;;;;2.20;1.40;;;;;;;16.43;78.16;101695.44;4973448;28;99084;-30
2023/05/11 16:21:00;;;;;;;1.95;1.00;;;;;;;16.46;77.84;101691.63;4973045;28;96588;-29
2023/05/11 16:23:25;;;;;;;3.65;1.67;;;;;;;16.43;78.37;101692.72;4972986;28;96830;-29
2023/05/11 16:25:51;;;;;;;2.83;1.80;;;;;;;16.43;78.21;101692.72;4972489;28;97457;-29
2023/05/11 16:28:16;;;;;;;3.30;1.50;;;;;;;16.37;78.12;101687.69;4973213;28;97851;-31
2023/05/11 16:30:42;;;;;;;1.90;1.17;;;;;;;16.31;78.04;101685.41;4972868;28;96783;-29
2023/05/11 16:33:15;;;;;;;4.97;1.45;;;;;;;16.28;77.90;101694.72;5139577;27;96557;-28
2023/05/11 16:35:41;;;;;;;1.60;1.08;;;;;;;16.24;78.40;101692.31;5119308;27;96858;-29
2023/05/11 16:38:15;;;;;;;2.03;1.30;;;;;;;16.18;78.63;101693.59;5118806;27;99842;-29
2023/05/11 16:40:40;;;;;;;1.40;0.85;;;;;;;16.18;78.45;101690.00;5118684;27;101143;-29
2023/05/11 16:43:05;;;;;;;3.25;1.60;;;;;;;16.17;78.62;101683.66;5138035;27;96476;-28
2023/05/11 16:45:31;;;;;;;2.08;1.30;;;;;;;16.19;78.81;101683.56;5138075;27;97168;-30
2023/05/11 16:47:56;;;;;;;2.58;1.48;;;;;;;16.21;79.36;101684.31;5137500;27;97452;-29
2023/05/11 16:50:22;;;;;;;1.73;1.20;;;;;;;16.23;79.41;101685.06;5137261;27;99233;-29
2023/05/11 16:52:47;;;;;;;2.63;1.63;;;;;;;16.21;79.35;101692.50;5137737;27;96632;-29
2023/05/11 16:55:14;;;;;;;3.83;1.30;;;;;;;16.19;79.10;101689.03;5137965;27;96757;-28
2023/05/11 16:57:40;;;;;;;3.33;1.20;;;;;;;16.16;78.68;101700.16;5137298;27;99477;-29
2023/05/11 17:00:07;;;;;;;2.63;1.40;;;;;;;16.11;77.47;101693.19;5137112;27;98772;-30
2023/05/11 17:02:32;;;;;;;4.13;1.40;;;;;;;16.10;78.47;101699.63;5100854;27;96641;-28
2023/05/11 17:04:57;;;;;;;2.60;1.10;;;;;;;16.07;78.78;101697.13;5116960;27;96783;-28
2023/05/11 17:07:24;;;;;;;2.13;1.35;;;;;;;16.03;79.19;101706.50;5116194;27;97996;-30
2023/05/11 17:09:54;;;;;;;2.50;1.55;;;;;;;15.91;79.40;101696.44;5097326;27;101013;-29
2023/05/11 17:12:20;;;;;;;2.28;1.33;;;;;;;15.97;79.62;101712.44;5097792;27;96586;-30
2023/05/11 17:14:46;;;;;;;4.10;1.52;;;;;;;15.96;79.28;101715.25;5116640;27;96784;-29
2023/05/11 17:17:11;;;;;;;1.98;1.17;;;;;;;15.86;79.63;101707.72;5116263;27;98407;-29
2023/05/11 17:19:37;;;;;;;2.95;1.33;;;;;;;15.88;79.99;101710.34;5115876;27;99556;-30
2023/05/11 17:22:03;;;;;;;2.10;1.30;;;;;;;15.88;79.77;101721.28;5116715;27;96630;-29
2023/05/11 17:24:29;;;;;;;2.83;1.52;;;;;;;15.82;80.09;101702.56;5116466;27;96796;-29
2023/05/11 17:26:54;;;;;;;2.25;1.33;;;;;;;15.80;80.32;101709.97;5115776;27;99896;-29
2023/05/11 17:29:20;;;;;;;2.28;1.33;;;;;;;15.79;80.47;101711.84;5115809;27;99341;-29
2023/05/11 17:31:47;;;;;;;3.20;1.70;;;;;;;15.75;80.57;101704.84;5115428;27;96882;-28
2023/05/11 17:34:13;;;;;;;3.15;1.60;;;;;;;15.75;80.65;101715.75;5097652;27;97150;-29
2023/05/11 17:36:38;;;;;;;3.35;1.55;;;;;;;15.68;81.06;101718.03;5115714;27;97859;-29
2023/05/11 17:39:04;;;;;;;2.20;1.40;;;;;;;15.67;81.16;101715.41;5115877;27;98507;-28
2023/05/11 17:41:29;;;;;;;2.03;1.48;;;;;;;15.62;81.14;101713.00;5116180;27;96709;-29
2023/05/11 17:43:54;;;;;;;2.33;1.23;;;;;;;15.62;81.20;101713.00;5106568;27;96685;-30